Time;durP1;ratioP1;P1;durP2;ratioP2;P2;SDS_P1;SDS_P2;PMS_P1;PMS_P2;Temp;Humidity;BMP_temperature;BMP_pressure;BME280_temperature;BME280_humidity;BME280_pressure;Samples;Min_cycle;Max_cycle;Signal;HPM_P1;HPM_P2
2023/08/05 00:00:10;;;;;;;2.45;1.52;;;;;;;;;;5056253;28;20179;-51
2023/08/05 00:02:36;;;;;;;3.17;1.67;;;;;;;;;;5055766;28;20263;-50
2023/08/05 00:05:02;;;;;;;1.65;1.48;;;;;;;;;;5056060;28;20236;-50
2023/08/05 00:07:28;;;;;;;1.70;1.60;;;;;;;;;;5056137;28;20179;-50
2023/08/05 00:09:54;;;;;;;2.05;1.75;;;;;;;;;;5055740;28;20193;-50
2023/08/05 00:12:20;;;;;;;1.88;1.60;;;;;;;;;;5055840;28;20809;-50
2023/08/05 00:14:46;;;;;;;1.40;1.30;;;;;;;;;;5054836;28;20244;-50
2023/08/05 00:17:12;;;;;;;2.08;1.67;;;;;;;;;;5048380;28;20270;-50
2023/08/05 00:19:38;;;;;;;2.75;1.40;;;;;;;;;;5055358;28;20266;-50
2023/08/05 00:22:04;;;;;;;2.30;1.50;;;;;;;;;;5054620;28;20205;-50
2023/08/05 00:24:30;;;;;;;2.85;1.50;;;;;;;;;;5050942;28;20180;-50
2023/08/05 00:26:56;;;;;;;2.13;1.50;;;;;;;;;;5036571;28;20607;-51
2023/08/05 00:29:22;;;;;;;1.70;1.60;;;;;;;;;;5048545;28;20434;-50
2023/08/05 00:31:48;;;;;;;1.85;1.55;;;;;;;;;;5049682;28;20219;-50
2023/08/05 00:34:14;;;;;;;5.00;1.63;;;;;;;;;;5053526;28;20496;-50
2023/08/05 00:36:40;;;;;;;2.08;1.42;;;;;;;;;;5043182;28;20562;-51
2023/08/05 00:39:06;;;;;;;1.83;1.20;;;;;;;;;;5055273;28;20182;-50
2023/08/05 00:41:32;;;;;;;1.92;1.40;;;;;;;;;;5051833;28;20183;-50
2023/08/05 00:43:58;;;;;;;1.52;1.33;;;;;;;;;;5049865;28;20273;-50
2023/08/05 00:46:24;;;;;;;1.60;1.42;;;;;;;;;;5053736;28;20179;-50
2023/08/05 00:48:51;;;;;;;2.00;1.58;;;;;;;;;;5049559;28;20182;-50
2023/08/05 00:51:17;;;;;;;1.98;1.45;;;;;;;;;;5054795;28;20273;-50
2023/08/05 00:53:44;;;;;;;1.65;1.55;;;;;;;;;;5054847;28;20183;-50
2023/08/05 00:56:10;;;;;;;1.90;1.42;;;;;;;;;;5046805;28;20570;-50
2023/08/05 00:58:36;;;;;;;1.60;1.25;;;;;;;;;;5054918;28;20175;-50
2023/08/05 01:01:02;;;;;;;1.38;1.27;;;;;;;;;;5055017;28;20175;-51
2023/08/05 01:03:28;;;;;;;1.95;1.50;;;;;;;;;;5054592;28;20193;-50
2023/08/05 01:05:54;;;;;;;1.40;1.30;;;;;;;;;;5055141;28;20609;-50
2023/08/05 01:08:21;;;;;;;1.63;1.30;;;;;;;;;;5053596;28;20194;-50
2023/08/05 01:10:48;;;;;;;1.50;1.40;;;;;;;;;;5053915;28;20473;-50
2023/08/05 01:13:14;;;;;;;1.45;1.35;;;;;;;;;;5049502;28;20479;-50
2023/08/05 01:15:40;;;;;;;1.40;1.30;;;;;;;;;;5055394;28;20178;-50
2023/08/05 01:18:09;;;;;;;1.70;1.30;;;;;;;;;;5054104;28;20550;-50
2023/08/05 01:20:39;;;;;;;1.65;1.33;;;;;;;;;;5054586;28;20183;-51
2023/08/05 01:23:12;;;;;;;1.77;1.35;;;;;;;;;;5047198;28;20457;-50
2023/08/05 01:25:39;;;;;;;3.38;1.63;;;;;;;;;;5051178;28;20228;-50
2023/08/05 01:28:06;;;;;;;1.50;1.40;;;;;;;;;;5054579;28;20218;-50
2023/08/05 01:30:32;;;;;;;1.20;1.13;;;;;;;;;;5054419;28;20178;-50
2023/08/05 01:33:00;;;;;;;1.50;1.40;;;;;;;;;;5054712;28;20280;-50
2023/08/05 01:35:25;;;;;;;1.38;1.20;;;;;;;;;;5053199;28;20228;-50
2023/08/05 01:37:51;;;;;;;1.63;1.33;;;;;;;;;;5051386;28;20187;-50
2023/08/05 01:40:17;;;;;;;1.67;1.23;;;;;;;;;;5053586;28;20179;-50
2023/08/05 01:42:43;;;;;;;1.65;1.20;;;;;;;;;;5048735;28;20509;-50
2023/08/05 01:45:09;;;;;;;1.92;1.40;;;;;;;;;;5049638;28;20566;-50
2023/08/05 01:47:35;;;;;;;1.42;1.33;;;;;;;;;;5036954;28;20271;-50
2023/08/05 01:50:01;;;;;;;1.40;1.25;;;;;;;;;;5050326;28;20232;-50
2023/08/05 01:52:27;;;;;;;5.88;1.63;;;;;;;;;;5042486;28;20208;-50
2023/08/05 01:54:53;;;;;;;1.40;1.30;;;;;;;;;;5046212;28;20175;-50
2023/08/05 01:57:19;;;;;;;1.40;1.30;;;;;;;;;;5054557;28;20179;-51
2023/08/05 01:59:45;;;;;;;1.33;1.23;;;;;;;;;;5053388;28;20554;-50
2023/08/05 02:02:11;;;;;;;2.38;1.30;;;;;;;;;;5043318;28;20198;-50
2023/08/05 02:04:37;;;;;;;2.22;1.30;;;;;;;;;;5047753;28;20229;-50
2023/08/05 02:07:03;;;;;;;1.35;1.25;;;;;;;;;;5034703;28;20241;-50
2023/08/05 02:09:29;;;;;;;1.60;1.40;;;;;;;;;;5045446;28;20186;-50
2023/08/05 02:11:54;;;;;;;1.48;1.30;;;;;;;;;;5053683;28;20237;-50
2023/08/05 02:14:20;;;;;;;1.50;1.40;;;;;;;;;;5036299;28;20226;-50
2023/08/05 02:16:46;;;;;;;1.00;1.00;;;;;;;;;;5049749;28;20180;-50
2023/08/05 02:19:12;;;;;;;1.60;1.30;;;;;;;;;;5050769;28;20179;-50
2023/08/05 02:21:38;;;;;;;1.40;1.30;;;;;;;;;;5056439;28;20198;-50
2023/08/05 02:24:09;;;;;;;1.20;1.10;;;;;;;;;;5057653;28;20550;-50
2023/08/05 02:26:35;;;;;;;1.73;1.30;;;;;;;;;;5056747;28;20209;-50
2023/08/05 02:29:01;;;;;;;1.35;1.25;;;;;;;;;;5058301;28;20182;-50
2023/08/05 02:31:27;;;;;;;1.42;1.20;;;;;;;;;;5050764;28;20179;-50
2023/08/05 02:33:53;;;;;;;1.25;1.15;;;;;;;;;;5047517;28;20190;-50
2023/08/05 02:36:19;;;;;;;1.90;1.50;;;;;;;;;;5055165;28;20183;-50
2023/08/05 02:38:45;;;;;;;1.50;1.40;;;;;;;;;;5057848;28;20569;-50
2023/08/05 02:41:11;;;;;;;1.42;1.33;;;;;;;;;;5039614;28;20183;-50
2023/08/05 02:43:36;;;;;;;1.45;1.35;;;;;;;;;;5055097;28;20194;-50
2023/08/05 02:46:02;;;;;;;1.48;1.30;;;;;;;;;;5049585;28;20187;-50
2023/08/05 02:48:28;;;;;;;1.90;1.50;;;;;;;;;;5057049;28;20191;-50
2023/08/05 02:50:55;;;;;;;1.50;1.30;;;;;;;;;;5056151;28;20179;-50
2023/08/05 02:53:21;;;;;;;2.05;1.15;;;;;;;;;;5057834;28;20312;-50
2023/08/05 02:55:47;;;;;;;1.33;1.17;;;;;;;;;;5045458;28;20205;-50
2023/08/05 02:58:17;;;;;;;1.33;1.23;;;;;;;;;;5037892;28;20246;-50
2023/08/05 03:00:43;;;;;;;3.00;1.23;;;;;;;;;;5046504;28;20474;-50
2023/08/05 03:03:10;;;;;;;3.22;1.30;;;;;;;;;;5056352;28;20266;-50
2023/08/05 03:05:36;;;;;;;3.45;1.30;;;;;;;;;;5056785;28;20266;-50
2023/08/05 03:08:02;;;;;;;1.77;1.30;;;;;;;;;;5057558;28;20274;-50
2023/08/05 03:10:28;;;;;;;5.20;1.35;;;;;;;;;;5057130;28;20183;-50
2023/08/05 03:12:54;;;;;;;2.28;1.50;;;;;;;;;;5056382;28;20309;-50
2023/08/05 03:15:20;;;;;;;1.85;1.58;;;;;;;;;;5057447;28;20446;-50
2023/08/05 03:17:46;;;;;;;1.85;1.50;;;;;;;;;;5057274;28;20483;-50
2023/08/05 03:20:28;;;;;;;1.45;1.35;;;;;;;;;;5056674;28;20553;-50
2023/08/05 03:22:54;;;;;;;2.95;1.30;;;;;;;;;;5055811;28;20574;-50
2023/08/05 03:25:21;;;;;;;1.13;1.10;;;;;;;;;;5039708;28;20194;-50
2023/08/05 03:27:48;;;;;;;1.30;1.20;;;;;;;;;;5057020;28;20213;-50
2023/08/05 03:30:14;;;;;;;1.40;1.27;;;;;;;;;;5056366;28;20577;-50
2023/08/05 03:32:40;;;;;;;1.30;1.20;;;;;;;;;;5054507;28;20202;-50
2023/08/05 03:35:06;;;;;;;2.05;1.40;;;;;;;;;;5056369;28;20190;-50
2023/08/05 03:37:32;;;;;;;1.70;1.38;;;;;;;;;;5053216;28;20237;-50
2023/08/05 03:39:58;;;;;;;1.63;1.30;;;;;;;;;;5063004;28;20211;-50
2023/08/05 03:42:24;;;;;;;1.75;1.30;;;;;;;;;;5047933;28;20271;-50
2023/08/05 03:44:50;;;;;;;1.33;1.23;;;;;;;;;;5051366;28;20176;-50
2023/08/05 03:47:16;;;;;;;1.70;1.40;;;;;;;;;;5046859;28;20179;-50
2023/08/05 03:49:42;;;;;;;1.55;1.45;;;;;;;;;;5056050;28;20581;-51
2023/08/05 03:52:09;;;;;;;2.88;1.35;;;;;;;;;;5049485;28;20212;-50
2023/08/05 03:54:35;;;;;;;1.20;1.10;;;;;;;;;;5051820;28;20175;-50
2023/08/05 03:57:03;;;;;;;2.40;1.42;;;;;;;;;;5056131;28;20202;-50
2023/08/05 03:59:29;;;;;;;1.35;1.25;;;;;;;;;;5056273;28;20241;-50
2023/08/05 04:01:55;;;;;;;2.05;1.30;;;;;;;;;;5055564;28;20474;-50
2023/08/05 04:04:21;;;;;;;1.25;1.15;;;;;;;;;;5056290;28;20202;-50
2023/08/05 04:06:47;;;;;;;3.03;1.50;;;;;;;;;;5041672;28;20183;-50
2023/08/05 04:09:13;;;;;;;2.20;1.45;;;;;;;;;;5055387;28;20198;-50
2023/08/05 04:11:39;;;;;;;2.92;1.92;;;;;;;;;;5051477;28;20233;-50
2023/08/05 04:14:06;;;;;;;4.93;1.60;;;;;;;;;;5048551;28;20453;-51
2023/08/05 04:16:31;;;;;;;9.65;2.17;;;;;;;;;;5055369;28;20176;-51
2023/08/05 04:18:58;;;;;;;2.90;1.55;;;;;;;;;;5035823;28;20209;-50
2023/08/05 04:21:28;;;;;;;5.25;1.98;;;;;;;;;;5051730;28;20191;-55
2023/08/05 04:23:54;;;;;;;5.50;1.90;;;;;;;;;;5048158;28;20175;-50
2023/08/05 04:26:20;;;;;;;4.40;2.10;;;;;;;;;;5055441;28;20249;-50
2023/08/05 04:28:46;;;;;;;5.55;1.77;;;;;;;;;;5055551;28;20298;-50
2023/08/05 04:31:12;;;;;;;3.15;2.00;;;;;;;;;;5055247;28;20559;-50
2023/08/05 04:33:38;;;;;;;4.22;1.65;;;;;;;;;;5055528;28;20590;-50
2023/08/05 04:36:04;;;;;;;3.03;1.98;;;;;;;;;;5055183;28;20262;-51
2023/08/05 04:38:30;;;;;;;3.63;1.67;;;;;;;;;;5055149;28;20250;-50
2023/08/05 04:40:58;;;;;;;2.65;1.75;;;;;;;;;;5050992;28;20205;-50
2023/08/05 04:43:24;;;;;;;3.03;1.88;;;;;;;;;;5041212;28;20191;-50
2023/08/05 04:45:50;;;;;;;2.67;1.55;;;;;;;;;;5035786;28;20279;-50
2023/08/05 04:48:17;;;;;;;4.75;2.10;;;;;;;;;;5049906;28;20444;-50
2023/08/05 04:50:43;;;;;;;3.92;2.10;;;;;;;;;;5054689;28;20186;-50
2023/08/05 04:53:09;;;;;;;3.50;2.17;;;;;;;;;;5041287;28;20212;-50
2023/08/05 04:55:35;;;;;;;2.80;1.50;;;;;;;;;;5035521;28;20171;-50
2023/08/05 04:58:01;;;;;;;2.35;1.80;;;;;;;;;;5049754;28;20226;-50
2023/08/05 05:00:27;;;;;;;5.20;1.95;;;;;;;;;;5047539;28;20262;-50
2023/08/05 05:02:53;;;;;;;2.97;1.60;;;;;;;;;;5054919;28;20190;-50
2023/08/05 05:05:19;;;;;;;5.80;2.15;;;;;;;;;;5054676;28;20210;-50
2023/08/05 05:07:45;;;;;;;2.55;1.65;;;;;;;;;;5055353;28;20217;-50
2023/08/05 05:10:11;;;;;;;4.18;2.00;;;;;;;;;;5043357;28;20184;-50
2023/08/05 05:12:37;;;;;;;1.95;1.77;;;;;;;;;;5054743;28;20210;-50
2023/08/05 05:15:03;;;;;;;4.78;1.80;;;;;;;;;;5054740;28;20179;-50
2023/08/05 05:17:38;;;;;;;3.13;1.80;;;;;;;;;;5039188;28;20192;-50
2023/08/05 05:20:04;;;;;;;3.85;1.88;;;;;;;;;;5046855;28;20175;-50
2023/08/05 05:22:31;;;;;;;3.75;1.77;;;;;;;;;;5054275;28;20194;-50
2023/08/05 05:24:57;;;;;;;2.55;1.80;;;;;;;;;;5055085;28;20258;-50
2023/08/05 05:27:23;;;;;;;3.00;1.60;;;;;;;;;;5055041;28;20267;-50
2023/08/05 05:29:49;;;;;;;2.45;1.42;;;;;;;;;;5052485;28;20574;-50
2023/08/05 05:32:14;;;;;;;1.98;1.75;;;;;;;;;;5052088;28;20265;-50
2023/08/05 05:34:40;;;;;;;2.25;1.75;;;;;;;;;;5053664;28;20287;-50
2023/08/05 05:37:06;;;;;;;5.07;1.90;;;;;;;;;;5050454;28;20192;-50
2023/08/05 05:39:32;;;;;;;2.50;1.90;;;;;;;;;;5034869;28;20590;-50
2023/08/05 05:41:59;;;;;;;5.10;1.90;;;;;;;;;;5049855;28;20185;-50
2023/08/05 05:44:27;;;;;;;3.20;2.13;;;;;;;;;;5054706;28;20167;-50
2023/08/05 05:46:53;;;;;;;4.65;1.92;;;;;;;;;;5043536;28;20230;-50
2023/08/05 05:49:19;;;;;;;3.33;1.77;;;;;;;;;;5034641;28;20549;-50
2023/08/05 05:51:46;;;;;;;3.08;1.70;;;;;;;;;;5053245;28;20209;-50
2023/08/05 05:54:13;;;;;;;1.92;1.73;;;;;;;;;;5054616;28;20171;-50
2023/08/05 05:56:39;;;;;;;2.80;1.88;;;;;;;;;;5050478;28;20183;-50
2023/08/05 05:59:05;;;;;;;3.08;2.00;;;;;;;;;;5054322;28;20207;-50
2023/08/05 06:01:31;;;;;;;2.38;1.67;;;;;;;;;;5035353;28;20217;-50
2023/08/05 06:03:57;;;;;;;4.22;2.13;;;;;;;;;;5054305;28;20197;-50
2023/08/05 06:06:22;;;;;;;9.07;1.90;;;;;;;;;;5054498;28;20175;-50
2023/08/05 06:08:49;;;;;;;2.35;1.90;;;;;;;;;;5050740;28;20277;-50
2023/08/05 06:11:14;;;;;;;3.60;2.00;;;;;;;;;;5053259;28;20250;-50
2023/08/05 06:13:40;;;;;;;5.22;1.80;;;;;;;;;;5054278;28;20290;-50
2023/08/05 06:16:06;;;;;;;2.30;1.95;;;;;;;;;;5042875;28;20187;-50
2023/08/05 06:18:32;;;;;;;3.45;2.08;;;;;;;;;;5053992;28;20179;-50
2023/08/05 06:21:01;;;;;;;2.90;1.80;;;;;;;;;;5047536;28;20580;-50
2023/08/05 06:23:27;;;;;;;4.68;1.77;;;;;;;;;;5047497;28;20563;-50
2023/08/05 06:25:53;;;;;;;2.30;1.95;;;;;;;;;;5034284;28;20199;-50
2023/08/05 06:28:19;;;;;;;2.58;1.70;;;;;;;;;;5053123;28;20183;-50
2023/08/05 06:30:46;;;;;;;3.95;1.67;;;;;;;;;;5041612;28;20673;-50
2023/08/05 06:33:12;;;;;;;3.80;2.30;;;;;;;;;;5041019;28;20693;-50
2023/08/05 06:35:38;;;;;;;1.70;1.60;;;;;;;;;;5051999;28;20229;-50
2023/08/05 06:38:04;;;;;;;2.72;1.83;;;;;;;;;;5042600;28;20229;-50
2023/08/05 06:40:30;;;;;;;1.98;1.80;;;;;;;;;;5033845;28;20172;-50
2023/08/05 06:42:56;;;;;;;3.95;1.98;;;;;;;;;;5045370;28;20217;-51
2023/08/05 06:45:25;;;;;;;2.67;1.88;;;;;;;;;;5040506;28;20431;-50
2023/08/05 06:47:51;;;;;;;2.10;1.88;;;;;;;;;;5035290;28;20186;-50
2023/08/05 06:50:17;;;;;;;3.00;1.77;;;;;;;;;;5037129;28;20187;-50
2023/08/05 06:52:43;;;;;;;2.80;2.00;;;;;;;;;;5033393;28;20212;-50
2023/08/05 06:55:09;;;;;;;4.95;2.00;;;;;;;;;;5052663;28;20439;-50
2023/08/05 06:57:36;;;;;;;2.33;1.73;;;;;;;;;;5053828;28;20183;-50
2023/08/05 07:00:02;;;;;;;1.67;1.58;;;;;;;;;;5047303;28;20203;-50
2023/08/05 07:02:28;;;;;;;3.03;1.90;;;;;;;;;;5032756;28;20208;-50
2023/08/05 07:04:54;;;;;;;1.70;1.60;;;;;;;;;;5050598;28;20251;-50
2023/08/05 07:07:20;;;;;;;2.55;1.63;;;;;;;;;;5054702;28;20422;-50
2023/08/05 07:09:47;;;;;;;1.85;1.60;;;;;;;;;;5057293;28;20179;-50
2023/08/05 07:12:13;;;;;;;2.40;1.60;;;;;;;;;;5056942;28;20477;-50
2023/08/05 07:14:39;;;;;;;5.00;1.92;;;;;;;;;;5057254;28;20213;-50
2023/08/05 07:17:05;;;;;;;2.22;1.63;;;;;;;;;;5057400;28;20194;-50
2023/08/05 07:19:31;;;;;;;2.50;1.60;;;;;;;;;;5057220;28;20171;-50
2023/08/05 07:21:57;;;;;;;1.70;1.60;;;;;;;;;;5051842;28;20473;-50
2023/08/05 07:24:23;;;;;;;1.40;1.30;;;;;;;;;;5056419;28;20198;-51
2023/08/05 07:26:49;;;;;;;2.88;1.80;;;;;;;;;;5056573;28;20205;-50
2023/08/05 07:29:15;;;;;;;3.42;2.22;;;;;;;;;;5057295;28;20262;-50
2023/08/05 07:31:41;;;;;;;2.30;1.75;;;;;;;;;;5056323;28;20175;-50
2023/08/05 07:34:09;;;;;;;2.40;1.60;;;;;;;;;;5056782;28;20179;-50
2023/08/05 07:36:35;;;;;;;2.38;1.70;;;;;;;;;;5056611;28;20446;-50
2023/08/05 07:39:06;;;;;;;1.60;1.50;;;;;;;;;;5039610;28;20461;-49
2023/08/05 07:41:32;;;;;;;3.72;1.48;;;;;;;;;;5044460;28;20559;-48
2023/08/05 07:43:58;;;;;;;4.60;1.70;;;;;;;;;;5043629;28;20202;-48
2023/08/05 07:46:30;;;;;;;3.20;1.48;;;;;;;;;;5043997;28;20254;-48
2023/08/05 07:48:58;;;;;;;4.15;1.45;;;;;;;;;;5039164;28;20194;-49
2023/08/05 07:51:24;;;;;;;3.00;1.75;;;;;;;;;;5050201;28;20190;-49
2023/08/05 07:53:53;;;;;;;2.85;1.60;;;;;;;;;;5039649;28;20207;-48
2023/08/05 07:56:19;;;;;;;2.67;1.58;;;;;;;;;;5044579;28;20172;-46
2023/08/05 07:58:46;;;;;;;2.72;1.83;;;;;;;;;;5045664;28;20258;-46
2023/08/05 08:01:22;;;;;;;6.35;2.13;;;;;;;;;;5051798;28;20176;-49
2023/08/05 08:03:51;;;;;;;3.97;1.60;;;;;;;;;;5041539;28;20179;-50
2023/08/05 08:06:18;;;;;;;5.15;1.98;;;;;;;;;;5050743;28;20179;-50
2023/08/05 08:08:44;;;;;;;1.83;1.48;;;;;;;;;;5056477;28;20938;-51
2023/08/05 08:11:10;;;;;;;3.42;1.50;;;;;;;;;;5050211;28;20179;-54
2023/08/05 08:13:36;;;;;;;3.60;1.58;;;;;;;;;;5056130;28;20213;-54
2023/08/05 08:16:02;;;;;;;2.83;1.60;;;;;;;;;;5054277;28;20186;-54
2023/08/05 08:18:28;;;;;;;2.33;1.90;;;;;;;;;;5053972;28;20434;-54
2023/08/05 08:20:54;;;;;;;2.08;1.60;;;;;;;;;;5049583;28;20175;-54
2023/08/05 08:23:20;;;;;;;3.65;1.92;;;;;;;;;;5043696;28;20184;-54
2023/08/05 08:25:46;;;;;;;2.35;1.50;;;;;;;;;;5051732;28;20191;-54
2023/08/05 08:28:12;;;;;;;2.53;1.58;;;;;;;;;;5055418;28;20194;-54
2023/08/05 08:30:38;;;;;;;2.10;1.50;;;;;;;;;;5042298;28;20183;-54
2023/08/05 08:33:04;;;;;;;2.22;1.60;;;;;;;;;;5055224;28;20219;-54
2023/08/05 08:35:30;;;;;;;2.28;1.65;;;;;;;;;;5055891;28;20175;-54
2023/08/05 08:37:56;;;;;;;2.92;1.67;;;;;;;;;;5052847;28;20179;-54
2023/08/05 08:40:22;;;;;;;4.03;1.85;;;;;;;;;;5041503;28;20567;-54
2023/08/05 08:42:51;;;;;;;4.95;1.70;;;;;;;;;;5054417;28;20233;-54
2023/08/05 08:45:18;;;;;;;2.05;1.55;;;;;;;;;;5054882;28;20233;-54
2023/08/05 08:47:45;;;;;;;2.97;1.75;;;;;;;;;;5041661;28;20988;-54
2023/08/05 08:50:12;;;;;;;1.70;1.60;;;;;;;;;;5046075;28;20586;-54
2023/08/05 08:52:38;;;;;;;7.15;1.83;;;;;;;;;;5054317;28;20198;-54
2023/08/05 08:55:04;;;;;;;5.43;1.70;;;;;;;;;;5054171;28;20179;-54
2023/08/05 08:57:30;;;;;;;2.30;1.70;;;;;;;;;;5052834;28;20187;-54
2023/08/05 08:59:56;;;;;;;3.70;1.38;;;;;;;;;;5048548;28;20232;-54
2023/08/05 09:02:25;;;;;;;4.65;1.73;;;;;;;;;;5051307;28;20191;-54
2023/08/05 09:04:52;;;;;;;2.17;1.40;;;;;;;;;;5049947;28;20554;-54
2023/08/05 09:07:19;;;;;;;4.05;2.17;;;;;;;;;;5042115;28;20200;-54
2023/08/05 09:09:48;;;;;;;2.08;1.48;;;;;;;;;;5050485;28;20183;-54
2023/08/05 09:12:14;;;;;;;3.15;1.80;;;;;;;;;;5044094;28;20780;-54
2023/08/05 09:14:40;;;;;;;1.83;1.67;;;;;;;;;;5042930;28;20184;-54
2023/08/05 09:17:07;;;;;;;2.97;1.85;;;;;;;;;;5052623;28;20217;-54
2023/08/05 09:19:32;;;;;;;3.20;1.85;;;;;;;;;;5054153;28;20187;-54
2023/08/05 09:22:02;;;;;;;1.50;1.40;;;;;;;;;;5037679;28;20210;-54
2023/08/05 09:24:28;;;;;;;2.47;1.52;;;;;;;;;;5046864;28;20289;-54
2023/08/05 09:26:58;;;;;;;2.30;1.60;;;;;;;;;;5054709;28;20443;-54
2023/08/05 09:29:24;;;;;;;2.47;1.70;;;;;;;;;;5054350;28;20207;-54
2023/08/05 09:32:03;;;;;;;2.67;1.60;;;;;;;;;;5053770;28;20210;-54
2023/08/05 09:34:33;;;;;;;2.03;1.92;;;;;;;;;;5049330;28;20179;-54
2023/08/05 09:36:59;;;;;;;4.47;1.70;;;;;;;;;;5049377;28;20179;-54
2023/08/05 09:39:30;;;;;;;1.60;1.50;;;;;;;;;;5047652;28;20171;-54
2023/08/05 09:41:56;;;;;;;2.22;1.40;;;;;;;;;;5045139;28;20207;-54
2023/08/05 09:44:22;;;;;;;2.53;1.42;;;;;;;;;;5048850;28;20187;-54
2023/08/05 09:46:49;;;;;;;2.03;1.52;;;;;;;;;;5049934;28;20632;-54
2023/08/05 09:49:17;;;;;;;2.33;1.73;;;;;;;;;;5051841;28;20236;-54
2023/08/05 09:51:43;;;;;;;1.40;1.27;;;;;;;;;;5053161;28;20213;-54
2023/08/05 09:54:17;;;;;;;1.67;1.58;;;;;;;;;;5058938;28;20228;-54
2023/08/05 09:56:44;;;;;;;1.58;1.48;;;;;;;;;;5057481;28;20178;-54
2023/08/05 09:59:12;;;;;;;1.92;1.52;;;;;;;;;;5055757;28;20190;-54
2023/08/05 10:01:40;;;;;;;1.70;1.60;;;;;;;;;;5051455;28;20179;-54
2023/08/05 10:04:08;;;;;;;1.48;1.35;;;;;;;;;;5053486;28;20220;-54
2023/08/05 10:06:38;;;;;;;1.70;1.60;;;;;;;;;;5053945;28;20179;-54
2023/08/05 10:09:05;;;;;;;2.88;1.50;;;;;;;;;;5053474;28;20175;-54
2023/08/05 10:11:31;;;;;;;2.08;1.50;;;;;;;;;;5054084;28;20168;-54
2023/08/05 10:13:58;;;;;;;2.53;1.70;;;;;;;;;;5053804;28;20191;-54
2023/08/05 10:16:24;;;;;;;1.65;1.52;;;;;;;;;;5053756;28;20168;-54
2023/08/05 10:18:51;;;;;;;2.25;1.38;;;;;;;;;;5046840;28;20251;-54
2023/08/05 10:21:34;;;;;;;2.80;1.58;;;;;;;;;;5049527;28;20209;-54
2023/08/05 10:24:01;;;;;;;2.30;1.42;;;;;;;;;;5053402;28;20175;-54
2023/08/05 10:26:38;;;;;;;4.43;1.40;;;;;;;;;;5054088;28;20255;-54
2023/08/05 10:29:23;;;;;;;2.97;1.77;;;;;;;;;;5054178;28;20183;-54
2023/08/05 10:31:49;;;;;;;1.42;1.33;;;;;;;;;;5053653;28;20203;-54
2023/08/05 10:34:18;;;;;;;2.28;1.58;;;;;;;;;;5052196;28;20217;-54
2023/08/05 10:36:45;;;;;;;4.88;1.70;;;;;;;;;;5054062;28;20191;-54
2023/08/05 10:39:30;;;;;;;6.65;1.58;;;;;;;;;;5050679;28;20214;-54
2023/08/05 10:41:56;;;;;;;3.75;1.70;;;;;;;;;;5053969;28;20183;-53
2023/08/05 10:44:34;;;;;;;11.65;2.47;;;;;;;;;;5057575;28;20237;-54
2023/08/05 10:47:03;;;;;;;7.00;1.60;;;;;;;;;;5058137;28;20206;-54
2023/08/05 10:49:29;;;;;;;7.82;2.92;;;;;;;;;;5057819;28;20241;-54
2023/08/05 10:51:55;;;;;;;6.25;2.30;;;;;;;;;;5043248;28;20208;-54
2023/08/05 10:54:21;;;;;;;5.43;2.22;;;;;;;;;;5040605;28;20266;-54
2023/08/05 10:56:47;;;;;;;5.82;2.03;;;;;;;;;;5056388;28;20721;-54
2023/08/05 10:59:14;;;;;;;2.63;1.90;;;;;;;;;;5057399;28;20273;-54
2023/08/05 11:01:56;;;;;;;6.65;1.95;;;;;;;;;;5055529;28;20175;-54
2023/08/05 11:04:26;;;;;;;3.85;2.08;;;;;;;;;;5055238;28;20753;-54
2023/08/05 11:06:52;;;;;;;3.15;1.73;;;;;;;;;;5048128;28;20178;-54
2023/08/05 11:09:18;;;;;;;4.85;1.98;;;;;;;;;;5047686;28;20263;-54
2023/08/05 11:11:48;;;;;;;3.17;1.60;;;;;;;;;;5036899;28;20640;-54
2023/08/05 11:14:14;;;;;;;3.60;1.65;;;;;;;;;;5036802;28;20638;-54
2023/08/05 11:16:47;;;;;;;4.38;2.50;;;;;;;;;;5037609;28;20251;-54
2023/08/05 11:19:13;;;;;;;2.00;1.80;;;;;;;;;;5037209;28;20176;-54
2023/08/05 11:21:43;;;;;;;2.03;1.70;;;;;;;;;;5039210;28;20222;-54
2023/08/05 11:24:16;;;;;;;2.60;1.48;;;;;;;;;;5057193;28;20186;-54
2023/08/05 11:26:42;;;;;;;1.88;1.48;;;;;;;;;;5048516;28;20183;-54
2023/08/05 11:29:08;;;;;;;2.85;2.00;;;;;;;;;;5057139;28;20321;-54
2023/08/05 11:31:34;;;;;;;1.60;1.50;;;;;;;;;;5056865;28;20163;-54
2023/08/05 11:34:00;;;;;;;1.83;1.70;;;;;;;;;;5056955;28;20182;-54
2023/08/05 11:36:26;;;;;;;2.65;1.80;;;;;;;;;;5056973;28;20593;-54
2023/08/05 11:38:56;;;;;;;2.53;1.55;;;;;;;;;;5056524;28;20213;-54
2023/08/05 11:41:23;;;;;;;2.92;1.70;;;;;;;;;;5056191;28;20175;-54
2023/08/05 11:43:49;;;;;;;1.88;1.75;;;;;;;;;;5056736;28;20198;-54
2023/08/05 11:46:25;;;;;;;4.72;1.70;;;;;;;;;;5056335;28;20251;-54
2023/08/05 11:49:05;;;;;;;3.70;1.92;;;;;;;;;;5052873;28;20187;-54
2023/08/05 11:51:43;;;;;;;2.60;1.63;;;;;;;;;;5046273;28;20179;-54
2023/08/05 11:54:09;;;;;;;1.95;1.75;;;;;;;;;;5055749;28;20195;-54
2023/08/05 11:56:35;;;;;;;2.72;1.60;;;;;;;;;;5055919;28;20195;-54
2023/08/05 11:59:01;;;;;;;1.70;1.50;;;;;;;;;;5041202;28;20183;-54
2023/08/05 12:01:27;;;;;;;2.72;1.50;;;;;;;;;;5040517;28;20183;-54
2023/08/05 12:03:57;;;;;;;1.98;1.45;;;;;;;;;;5050483;28;20686;-54
2023/08/05 12:06:26;;;;;;;1.58;1.48;;;;;;;;;;5055311;28;20262;-54
2023/08/05 12:08:59;;;;;;;2.55;1.80;;;;;;;;;;5056546;28;20233;-54
2023/08/05 12:11:25;;;;;;;2.03;1.70;;;;;;;;;;5055561;28;20175;-54
2023/08/05 12:13:52;;;;;;;2.58;1.85;;;;;;;;;;5055775;28;20278;-54
2023/08/05 12:16:18;;;;;;;3.55;1.52;;;;;;;;;;5055587;28;20190;-54
2023/08/05 12:18:44;;;;;;;3.92;2.10;;;;;;;;;;5056164;28;20171;-54
2023/08/05 12:21:10;;;;;;;2.25;1.90;;;;;;;;;;5052981;28;20187;-54
2023/08/05 12:23:40;;;;;;;2.63;1.63;;;;;;;;;;5047833;28;20669;-54
2023/08/05 12:26:07;;;;;;;2.53;1.75;;;;;;;;;;5055600;28;20264;-54
2023/08/05 12:28:32;;;;;;;2.05;1.83;;;;;;;;;;5055397;28;20187;-54
2023/08/05 12:30:58;;;;;;;1.63;1.52;;;;;;;;;;5049363;28;20581;-54
2023/08/05 12:33:24;;;;;;;2.50;1.63;;;;;;;;;;5045866;28;20218;-54
2023/08/05 12:35:55;;;;;;;1.60;1.50;;;;;;;;;;5052960;28;20225;-54
2023/08/05 12:38:21;;;;;;;1.83;1.60;;;;;;;;;;5046521;28;20289;-54
2023/08/05 12:40:46;;;;;;;3.58;2.08;;;;;;;;;;5035603;28;20563;-54
2023/08/05 12:43:12;;;;;;;1.65;1.55;;;;;;;;;;5041779;28;20190;-54
2023/08/05 12:45:39;;;;;;;2.38;1.92;;;;;;;;;;5050632;28;20184;-54
2023/08/05 12:48:05;;;;;;;1.63;1.52;;;;;;;;;;5050485;28;20216;-54
2023/08/05 12:50:31;;;;;;;7.43;2.00;;;;;;;;;;5053496;28;20179;-54
2023/08/05 12:52:58;;;;;;;2.17;1.98;;;;;;;;;;5042440;28;20207;-54
2023/08/05 12:55:24;;;;;;;5.68;1.98;;;;;;;;;;5038072;28;20182;-54
2023/08/05 12:57:51;;;;;;;6.32;1.98;;;;;;;;;;5035627;28;20176;-54
2023/08/05 13:00:17;;;;;;;6.53;2.10;;;;;;;;;;5051271;28;20317;-54
2023/08/05 13:02:46;;;;;;;14.70;2.13;;;;;;;;;;5038429;28;20207;-54
2023/08/05 13:05:12;;;;;;;4.03;1.70;;;;;;;;;;5039715;28;20238;-54
2023/08/05 13:07:37;;;;;;;5.47;1.85;;;;;;;;;;5035466;28;20590;-54
2023/08/05 13:10:04;;;;;;;6.60;1.88;;;;;;;;;;5035341;28;20188;-54
2023/08/05 13:12:29;;;;;;;2.85;1.70;;;;;;;;;;5035821;28;20298;-54
2023/08/05 13:14:55;;;;;;;2.45;1.75;;;;;;;;;;5055176;28;20250;-54
2023/08/05 13:17:21;;;;;;;2.00;1.90;;;;;;;;;;5055099;28;20258;-54
2023/08/05 13:19:47;;;;;;;2.47;1.60;;;;;;;;;;5054987;28;20425;-54
2023/08/05 13:22:13;;;;;;;3.42;1.70;;;;;;;;;;5045150;28;20293;-54
2023/08/05 13:24:39;;;;;;;2.03;1.90;;;;;;;;;;5054511;28;20187;-54
2023/08/05 13:27:05;;;;;;;2.95;2.20;;;;;;;;;;5054429;28;20265;-54
2023/08/05 13:29:31;;;;;;;1.90;1.80;;;;;;;;;;5054855;28;20187;-54
2023/08/05 13:31:57;;;;;;;1.65;1.48;;;;;;;;;;5054337;28;20186;-54
2023/08/05 13:34:24;;;;;;;1.92;1.73;;;;;;;;;;5055045;28;20221;-54
2023/08/05 13:36:50;;;;;;;1.98;1.80;;;;;;;;;;5054021;28;20538;-53
2023/08/05 13:39:16;;;;;;;3.60;1.88;;;;;;;;;;5054628;28;20175;-53
2023/08/05 13:41:42;;;;;;;1.85;1.48;;;;;;;;;;5053247;28;20175;-53
2023/08/05 13:44:08;;;;;;;4.05;2.17;;;;;;;;;;5053786;28;20193;-53
2023/08/05 13:46:34;;;;;;;3.88;1.50;;;;;;;;;;5054666;28;20225;-54
2023/08/05 13:49:00;;;;;;;1.75;1.58;;;;;;;;;;5054100;28;20175;-54
2023/08/05 13:51:26;;;;;;;2.22;1.92;;;;;;;;;;5036815;28;20259;-54
2023/08/05 13:53:52;;;;;;;2.67;1.65;;;;;;;;;;5036445;28;20217;-54
2023/08/05 13:56:17;;;;;;;3.55;1.50;;;;;;;;;;5053576;28;20225;-54
2023/08/05 13:58:43;;;;;;;2.58;1.80;;;;;;;;;;5035008;28;20175;-54
2023/08/05 14:01:12;;;;;;;2.90;1.55;;;;;;;;;;5051763;28;20190;-54
2023/08/05 14:03:38;;;;;;;1.52;1.42;;;;;;;;;;5053819;28;20211;-54
2023/08/05 14:06:04;;;;;;;3.10;1.65;;;;;;;;;;5040476;28;20229;-54
2023/08/05 14:08:31;;;;;;;2.45;1.80;;;;;;;;;;5034349;28;20180;-54
2023/08/05 14:10:57;;;;;;;5.78;1.58;;;;;;;;;;5044513;28;20183;-54
2023/08/05 14:13:23;;;;;;;3.33;1.60;;;;;;;;;;5040182;28;20203;-54
2023/08/05 14:15:52;;;;;;;3.15;1.90;;;;;;;;;;5054370;28;20190;-54
2023/08/05 14:18:18;;;;;;;1.67;1.55;;;;;;;;;;5058312;28;20175;-54
2023/08/05 14:20:44;;;;;;;2.72;1.75;;;;;;;;;;5048708;28;20244;-54
2023/08/05 14:23:10;;;;;;;2.05;1.85;;;;;;;;;;5038155;28;20496;-54
2023/08/05 14:25:36;;;;;;;1.88;1.70;;;;;;;;;;5056716;28;20274;-54
2023/08/05 14:28:02;;;;;;;2.90;1.40;;;;;;;;;;5041675;28;20402;-54
2023/08/05 14:30:28;;;;;;;1.67;1.58;;;;;;;;;;5049867;28;20261;-54
2023/08/05 14:32:54;;;;;;;3.45;1.83;;;;;;;;;;5057741;28;20237;-54
2023/08/05 14:35:20;;;;;;;2.30;1.85;;;;;;;;;;5040154;28;20215;-54
2023/08/05 14:37:46;;;;;;;1.83;1.67;;;;;;;;;;5053024;28;20207;-54
2023/08/05 14:40:12;;;;;;;1.90;1.80;;;;;;;;;;5057408;28;20179;-54